createdAt,value
2019-02-05T00:01:42.762Z,101056.63
2019-02-05T00:04:12.542Z,101064.51
2019-02-05T00:06:42.192Z,101065.81
2019-02-05T00:09:13.770Z,101061.19
2019-02-05T00:11:43.438Z,101055.91
2019-02-05T00:14:13.522Z,101050.13
2019-02-05T00:16:43.640Z,101053.58
2019-02-05T00:19:13.507Z,101054.38
2019-02-05T00:21:43.184Z,101050.80
2019-02-05T00:24:12.897Z,101043.87
2019-02-05T00:26:42.568Z,101055.88
2019-02-05T00:29:12.321Z,101060.40
2019-02-05T00:31:41.989Z,101053.45
2019-02-05T00:34:11.637Z,101052.27
2019-02-05T00:36:41.490Z,101073.50
2019-02-05T00:39:11.175Z,101067.65
2019-02-05T00:41:40.980Z,101084.55
2019-02-05T00:44:10.891Z,101083.86
2019-02-05T00:46:40.563Z,101072.91
2019-02-05T00:49:10.168Z,101086.61
2019-02-05T00:51:39.891Z,101088.55
2019-02-05T00:54:09.717Z,101087.23
2019-02-05T00:56:39.600Z,101093.09
2019-02-05T00:59:09.875Z,101104.76
2019-02-05T01:01:39.552Z,101098.80
2019-02-05T01:04:09.301Z,101110.20
2019-02-05T01:06:38.946Z,101102.37
2019-02-05T01:09:10.661Z,101097.48
2019-02-05T01:11:40.301Z,101096.09
2019-02-05T01:14:10.152Z,101104.67
2019-02-05T01:16:39.712Z,101110.27
2019-02-05T01:19:09.586Z,101113.58
2019-02-05T01:21:39.281Z,101113.58
2019-02-05T01:24:09.110Z,101112.38
2019-02-05T01:26:39.428Z,101107.18
2019-02-05T01:29:09.366Z,101100.55
2019-02-05T01:31:39.003Z,101089.80
2019-02-05T01:34:08.698Z,101103.03
2019-02-05T01:36:38.260Z,101099.88
2019-02-05T01:39:08.807Z,101105.53
2019-02-05T01:41:38.665Z,101095.75
2019-02-05T01:44:08.801Z,101089.31
2019-02-05T01:46:38.372Z,101083.43
2019-02-05T01:49:08.026Z,101073.97
2019-02-05T01:51:37.690Z,101073.72
2019-02-05T01:54:07.361Z,101077.45
2019-02-05T01:56:40.770Z,101085.33
2019-02-05T01:59:08.561Z,101076.68
2019-02-05T02:01:38.279Z,101071.66
2019-02-05T02:04:08.276Z,101075.17
2019-02-05T02:06:37.966Z,101073.17
2019-02-05T02:09:08.131Z,101074.77
2019-02-05T02:11:38.039Z,101090.09
2019-02-05T02:14:14.879Z,101082.23
2019-02-05T02:16:44.490Z,101090.39
2019-02-05T02:19:14.175Z,101089.41
2019-02-05T02:21:43.855Z,101092.61
2019-02-05T02:24:13.565Z,101089.31
2019-02-05T02:26:51.805Z,101078.01
2019-02-05T02:29:14.518Z,101082.41
2019-02-05T02:31:44.239Z,101073.47
2019-02-05T02:34:13.819Z,101071.61
2019-02-05T02:36:43.852Z,101065.22
2019-02-05T02:39:13.427Z,101069.97
2019-02-05T02:41:43.297Z,101061.63
2019-02-05T02:44:12.926Z,101054.03
2019-02-05T02:46:42.809Z,101051.31
2019-02-05T02:49:12.743Z,101057.87
2019-02-05T02:51:42.965Z,101058.76
2019-02-05T02:54:12.586Z,101065.40
2019-02-05T02:56:42.328Z,101064.20
2019-02-05T02:59:11.896Z,101067.58
2019-02-05T03:01:41.760Z,101062.88
2019-02-05T03:04:11.425Z,101063.08
2019-02-05T03:06:41.456Z,101056.94
2019-02-05T03:09:11.332Z,101051.88
2019-02-05T03:11:41.084Z,101059.41
2019-02-05T03:14:11.087Z,101075.36
2019-02-05T03:16:40.900Z,101082.14
2019-02-05T03:19:10.622Z,101084.59
2019-02-05T03:21:40.359Z,101092.05
2019-02-05T03:24:09.875Z,101092.47
2019-02-05T03:26:39.729Z,101088.11
2019-02-05T03:29:09.365Z,101082.36
2019-02-05T03:31:39.216Z,101087.80
2019-02-05T03:34:09.027Z,101091.52
2019-02-05T03:36:38.672Z,101088.91
2019-02-05T03:39:08.805Z,101085.03
2019-02-05T03:41:38.455Z,101088.55
2019-02-05T03:44:08.284Z,101085.66
2019-02-05T03:46:38.070Z,101088.88
2019-02-05T03:49:08.015Z,101076.80
2019-02-05T03:51:45.041Z,101081.73
2019-02-05T03:54:49.922Z,101076.44
2019-02-05T03:57:36.013Z,101075.93
2019-02-05T04:00:19.121Z,101078.53
2019-02-05T04:03:05.327Z,101073.12
2019-02-05T04:05:54.703Z,101071.34
2019-02-05T04:08:53.006Z,101077.25
2019-02-05T04:11:45.231Z,101085.28
2019-02-05T04:14:40.191Z,101070.17
2019-02-05T04:17:20.261Z,101086.44
2019-02-05T04:20:00.327Z,101079.72
2019-02-05T04:23:03.594Z,101069.25
2019-02-05T04:26:22.061Z,101068.02
2019-02-05T04:29:01.738Z,101057.97
2019-02-05T04:32:05.695Z,101055.79
2019-02-05T04:34:45.802Z,101053.48
2019-02-05T04:37:58.031Z,101045.23
2019-02-05T04:40:59.734Z,101051.62
2019-02-05T04:43:45.928Z,101055.33
2019-02-05T04:46:38.035Z,101049.33
2019-02-05T04:49:33.280Z,101052.88
2019-02-05T04:52:30.528Z,101052.50
2019-02-05T04:55:32.049Z,101051.38
2019-02-05T04:58:30.564Z,101056.92
2019-02-05T05:01:37.899Z,101051.81
2019-02-05T05:04:17.422Z,101062.77
2019-02-05T05:06:54.851Z,101066.09
2019-02-05T05:09:44.178Z,101063.23
2019-02-05T05:12:13.771Z,101063.63
2019-02-05T05:14:43.792Z,101076.95
2019-02-05T05:17:13.351Z,101083.84
2019-02-05T05:19:43.328Z,101096.56
2019-02-05T05:22:13.260Z,101096.83
2019-02-05T05:24:43.753Z,101103.41
2019-02-05T05:27:16.473Z,101096.83
2019-02-05T05:29:46.653Z,101093.08
2019-02-05T05:32:16.603Z,101098.69
2019-02-05T05:34:46.293Z,101106.84
2019-02-05T05:37:14.368Z,101103.44
2019-02-05T05:39:44.014Z,101103.88
2019-02-05T05:42:13.660Z,101098.22
2019-02-05T05:44:43.947Z,101105.02
2019-02-05T05:47:13.652Z,101111.43
2019-02-05T05:49:43.752Z,101110.40
2019-02-05T05:52:13.625Z,101120.77
2019-02-05T05:54:43.190Z,101107.08
2019-02-05T05:57:13.048Z,101103.85
2019-02-05T05:59:42.819Z,101106.84
2019-02-05T06:02:12.571Z,101109.83
2019-02-05T06:04:42.277Z,101106.31
2019-02-05T06:07:11.878Z,101108.05
2019-02-05T06:09:42.110Z,101107.89
2019-02-05T06:12:11.900Z,101106.48
2019-02-05T06:14:41.828Z,101109.42
2019-02-05T06:17:11.621Z,101105.42
2019-02-05T06:19:41.500Z,101106.36
2019-02-05T06:22:11.148Z,101103.94
2019-02-05T06:24:40.897Z,101111.86
2019-02-05T06:27:10.784Z,101124.51
2019-02-05T06:29:40.377Z,101117.06
2019-02-05T06:32:10.305Z,101121.30
2019-02-05T06:34:40.159Z,101123.06
2019-02-05T06:37:09.700Z,101143.38
2019-02-05T06:39:39.503Z,101164.49
2019-02-05T06:42:09.108Z,101157.42
2019-02-05T06:44:39.148Z,101158.20
2019-02-05T06:47:09.179Z,101162.73
2019-02-05T06:49:38.879Z,101175.11
2019-02-05T06:52:08.548Z,101175.61
2019-02-05T06:54:38.237Z,101180.16
2019-02-05T06:57:07.923Z,101179.37
2019-02-05T06:59:37.628Z,101179.09
2019-02-05T07:02:09.910Z,101182.20
2019-02-05T07:04:39.572Z,101179.98
2019-02-05T07:07:09.164Z,101181.16
2019-02-05T07:09:38.988Z,101180.41
2019-02-05T07:12:08.598Z,101193.80
2019-02-05T07:14:38.341Z,101203.84
2019-02-05T07:17:08.640Z,101207.00
2019-02-05T07:19:38.139Z,101212.98
2019-02-05T07:22:07.990Z,101208.41
2019-02-05T07:24:37.675Z,101207.30
2019-02-05T07:27:07.904Z,101213.30
2019-02-05T07:29:37.911Z,101224.77
2019-02-05T07:32:08.242Z,101216.52
2019-02-05T07:34:37.950Z,101219.00
2019-02-05T07:37:07.664Z,101211.31
2019-02-05T07:39:37.409Z,101213.63
2019-02-05T07:42:07.139Z,101214.36
2019-02-05T07:44:36.709Z,101222.23
2019-02-05T07:47:07.104Z,101217.08
2019-02-05T07:49:37.235Z,101222.23
2019-02-05T07:52:07.352Z,101221.32
2019-02-05T07:54:36.926Z,101230.66
2019-02-05T07:57:06.790Z,101231.75
2019-02-05T07:59:36.509Z,101236.98
2019-02-05T08:02:06.286Z,101241.05
2019-02-05T08:04:35.869Z,101237.92
2019-02-05T08:07:07.698Z,101244.55
2019-02-05T08:09:37.893Z,101255.69
2019-02-05T08:12:07.615Z,101261.79
2019-02-05T08:14:37.613Z,101264.28
2019-02-05T08:17:07.417Z,101271.72
2019-02-05T08:19:37.092Z,101263.37
2019-02-05T08:22:06.818Z,101265.57
2019-02-05T08:24:37.011Z,101265.88
2019-02-05T08:27:06.703Z,101260.47
2019-02-05T08:29:36.463Z,101261.19
2019-02-05T08:32:06.317Z,101266.63
2019-02-05T08:34:35.897Z,101264.52
2019-02-05T08:37:05.687Z,101280.13
2019-02-05T08:39:35.694Z,101290.07
2019-02-05T08:42:05.516Z,101288.75
2019-02-05T08:44:35.180Z,101294.91
2019-02-05T08:47:05.370Z,101294.52
2019-02-05T08:49:35.107Z,101294.22
2019-02-05T08:52:06.295Z,101293.83
2019-02-05T08:54:35.988Z,101286.83
2019-02-05T08:57:06.103Z,101300.17
2019-02-05T08:59:35.938Z,101305.84
2019-02-05T09:02:05.767Z,101297.77
2019-02-05T09:04:35.393Z,101297.84
2019-02-05T09:07:05.166Z,101316.47
2019-02-05T09:09:34.807Z,101320.72
2019-02-05T09:12:05.355Z,101322.63
2019-02-05T09:14:35.084Z,101328.11
2019-02-05T09:17:04.623Z,101319.41
2019-02-05T09:19:34.224Z,101318.13
2019-02-05T09:22:03.784Z,101319.81
2019-02-05T09:24:33.458Z,101325.95
2019-02-05T09:27:03.528Z,101328.28
2019-02-05T09:29:33.767Z,101329.98
2019-02-05T09:32:03.993Z,101324.86
2019-02-05T09:34:33.733Z,101326.30
2019-02-05T09:37:03.302Z,101332.23
2019-02-05T09:39:33.108Z,101337.65
2019-02-05T09:42:02.763Z,101339.05
2019-02-05T09:44:32.552Z,101334.79
2019-02-05T09:47:02.209Z,101337.36
2019-02-05T09:49:32.091Z,101340.61
2019-02-05T09:52:01.893Z,101338.27
2019-02-05T09:54:31.797Z,101336.50
2019-02-05T09:57:01.712Z,101347.33
2019-02-05T09:59:31.741Z,101340.81
2019-02-05T10:02:01.593Z,101347.22
2019-02-05T10:04:31.572Z,101342.88
2019-02-05T10:07:01.936Z,101350.14
2019-02-05T10:09:31.726Z,101353.36
2019-02-05T10:12:01.821Z,101357.19
2019-02-05T10:14:31.832Z,101364.67
2019-02-05T10:17:02.210Z,101366.98
2019-02-05T10:19:31.840Z,101357.43
2019-02-05T10:22:02.113Z,101361.61
2019-02-05T10:24:31.812Z,101362.25
2019-02-05T10:27:02.012Z,101359.10
2019-02-05T10:29:31.647Z,101355.78
2019-02-05T10:32:01.569Z,101358.64
2019-02-05T10:34:34.217Z,101357.10
2019-02-05T10:37:02.852Z,101356.07
2019-02-05T10:39:33.191Z,101369.85
2019-02-05T10:42:22.251Z,101366.64
2019-02-05T10:44:51.918Z,101365.95
2019-02-05T10:47:22.662Z,101369.86
2019-02-05T10:49:52.301Z,101370.06
2019-02-05T10:52:22.006Z,101368.83
2019-02-05T10:54:51.736Z,101371.55
2019-02-05T10:57:22.045Z,101382.70
2019-02-05T10:59:54.368Z,101374.92
2019-02-05T11:02:22.987Z,101380.26
2019-02-05T11:04:52.502Z,101385.09
2019-02-05T11:07:22.212Z,101371.48
2019-02-05T11:09:52.065Z,101360.45
2019-02-05T11:12:22.156Z,101359.70
2019-02-05T11:14:51.847Z,101361.50
2019-02-05T11:17:21.542Z,101366.84
2019-02-05T11:19:51.136Z,101362.66
2019-02-05T11:22:20.716Z,101369.34
2019-02-05T11:24:50.406Z,101357.52
2019-02-05T11:27:20.057Z,101359.37
2019-02-05T11:29:49.998Z,101351.70
2019-02-05T11:32:19.952Z,101352.89
2019-02-05T11:34:49.750Z,101353.97
2019-02-05T11:37:19.505Z,101355.42
2019-02-05T11:39:49.150Z,101360.17
2019-02-05T11:45:20.592Z,101349.23
2019-02-05T11:47:51.071Z,101343.05
2019-02-05T11:50:20.911Z,101350.05
2019-02-05T11:52:51.396Z,101355.42
2019-02-05T11:55:27.486Z,101349.15
2019-02-05T11:57:57.291Z,101352.62
2019-02-05T12:00:32.995Z,101343.88
2019-02-05T12:03:03.300Z,101345.17
2019-02-05T12:05:33.181Z,101345.34
2019-02-05T12:08:03.109Z,101348.41
2019-02-05T12:10:32.721Z,101344.95
2019-02-05T12:13:02.396Z,101349.13
2019-02-05T12:15:32.085Z,101345.09
2019-02-05T12:18:01.777Z,101342.13
2019-02-05T12:20:31.526Z,101344.95
2019-02-05T12:23:01.687Z,101344.94
2019-02-05T12:25:32.435Z,101337.36
2019-02-05T12:28:02.239Z,101333.40
2019-02-05T12:30:44.472Z,101338.05
2019-02-05T12:33:08.151Z,101344.22
2019-02-05T12:35:38.218Z,101336.59
2019-02-05T12:38:08.573Z,101339.48
2019-02-05T12:40:38.691Z,101342.08
2019-02-05T12:43:08.654Z,101344.73
2019-02-05T12:45:39.687Z,101347.79
2019-02-05T12:48:09.590Z,101349.83
2019-02-05T12:50:42.141Z,101345.17
2019-02-05T12:53:11.893Z,101346.92
2019-02-05T12:55:41.697Z,101348.42
2019-02-05T12:58:11.361Z,101345.70
2019-02-05T13:00:55.986Z,101353.28
2019-02-05T13:03:16.377Z,101356.27
2019-02-05T13:05:46.745Z,101353.61
2019-02-05T13:08:16.470Z,101365.02
2019-02-05T13:10:51.016Z,101373.66
2019-02-05T13:13:21.810Z,101383.75
2019-02-05T13:15:51.402Z,101381.78
2019-02-05T13:18:21.579Z,101386.59
2019-02-05T13:20:51.491Z,101386.56
2019-02-05T13:23:21.194Z,101387.11
2019-02-05T13:25:50.915Z,101378.36
2019-02-05T13:28:20.521Z,101377.97
2019-02-05T13:30:50.292Z,101379.55
2019-02-05T13:33:20.340Z,101386.09
2019-02-05T13:35:50.054Z,101393.56
2019-02-05T13:38:19.727Z,101391.81
2019-02-05T13:40:49.391Z,101388.07
2019-02-05T13:43:19.189Z,101391.70
2019-02-05T13:45:49.010Z,101390.86
2019-02-05T13:48:18.667Z,101401.87
2019-02-05T13:50:48.266Z,101401.38
2019-02-05T13:53:18.050Z,101398.77
2019-02-05T13:55:47.933Z,101400.65
2019-02-05T13:58:17.533Z,101398.88
2019-02-05T14:00:54.508Z,101393.53
2019-02-05T14:03:24.159Z,101400.86
2019-02-05T14:05:53.896Z,101393.73
2019-02-05T14:08:23.495Z,101394.84
2019-02-05T14:10:53.379Z,101394.24
2019-02-05T14:13:23.009Z,101385.04
2019-02-05T14:15:53.106Z,101385.45
2019-02-05T14:18:23.248Z,101392.80
2019-02-05T14:20:53.340Z,101394.40
2019-02-05T14:23:22.995Z,101397.13
2019-02-05T14:25:52.570Z,101396.48
2019-02-05T14:28:22.188Z,101402.08
2019-02-05T14:30:54.311Z,101400.23
2019-02-05T14:33:24.174Z,101400.25
2019-02-05T14:35:53.946Z,101398.18
2019-02-05T14:38:23.663Z,101407.63
2019-02-05T14:40:53.379Z,101408.67
2019-02-05T14:43:23.354Z,101407.84
2019-02-05T14:45:53.202Z,101413.48
2019-02-05T14:48:23.263Z,101408.39
2019-02-05T14:50:52.989Z,101419.17
2019-02-05T14:53:22.785Z,101406.34
2019-02-05T14:55:52.394Z,101408.58
2019-02-05T14:58:22.616Z,101412.25
2019-02-05T15:00:52.416Z,101408.95
2019-02-05T15:03:22.033Z,101414.20
2019-02-05T15:05:51.748Z,101410.14
2019-02-05T15:08:21.443Z,101419.63
2019-02-05T15:10:51.224Z,101421.41
2019-02-05T15:13:21.081Z,101422.26
2019-02-05T15:15:50.981Z,101415.84
2019-02-05T15:18:21.391Z,101418.80
2019-02-05T15:20:51.525Z,101416.54
2019-02-05T15:23:21.904Z,101418.39
2019-02-05T15:25:52.146Z,101422.50
2019-02-05T15:28:22.289Z,101423.49
2019-02-05T15:30:51.875Z,101418.05
2019-02-05T15:33:35.809Z,101420.97
2019-02-05T15:36:10.709Z,101424.59
2019-02-05T15:38:40.305Z,101418.14
2019-02-05T15:41:10.141Z,101418.05
2019-02-05T15:43:39.889Z,101419.16
2019-02-05T15:46:10.168Z,101414.90
2019-02-05T15:48:39.719Z,101411.22
2019-02-05T15:51:10.064Z,101412.87
2019-02-05T15:53:39.650Z,101410.77
2019-02-05T15:56:09.915Z,101407.75
2019-02-05T15:58:39.956Z,101415.48
2019-02-05T16:01:09.957Z,101415.42
2019-02-05T16:03:39.709Z,101411.39
2019-02-05T16:06:09.336Z,101413.05
2019-02-05T16:08:38.965Z,101406.43
2019-02-05T16:11:08.792Z,101416.96
2019-02-05T16:13:38.530Z,101411.56
2019-02-05T16:16:08.309Z,101415.73
2019-02-05T16:18:37.974Z,101424.48
2019-02-05T16:21:07.764Z,101422.28
2019-02-05T16:23:37.581Z,101415.65
2019-02-05T16:26:07.400Z,101409.08
2019-02-05T16:28:37.195Z,101411.02
2019-02-05T16:31:06.846Z,101405.02
2019-02-05T16:33:37.009Z,101415.20
2019-02-05T16:36:07.195Z,101406.08
2019-02-05T16:38:36.829Z,101414.41
2019-02-05T16:41:07.243Z,101414.10
2019-02-05T16:43:37.008Z,101415.38
2019-02-05T16:46:08.515Z,101419.86
2019-02-05T16:48:38.800Z,101424.08
2019-02-05T16:51:08.652Z,101418.52
2019-02-05T16:53:38.470Z,101418.33
2019-02-05T16:56:08.244Z,101420.73
2019-02-05T16:58:37.811Z,101421.16
2019-02-05T17:01:07.680Z,101421.20
2019-02-05T17:03:37.805Z,101432.02
2019-02-05T17:06:07.591Z,101428.27
2019-02-05T17:08:37.299Z,101429.77
2019-02-05T17:11:06.963Z,101421.82
2019-02-05T17:13:36.728Z,101429.14
2019-02-05T17:16:06.448Z,101427.56
2019-02-05T17:18:36.546Z,101419.67
2019-02-05T17:21:06.565Z,101421.73
2019-02-05T17:23:36.227Z,101419.67
2019-02-05T17:26:06.687Z,101410.47
2019-02-05T17:28:36.306Z,101409.90
2019-02-05T17:31:06.198Z,101423.09
2019-02-05T17:33:35.944Z,101423.41
2019-02-05T17:36:06.058Z,101420.45
2019-02-05T17:38:35.726Z,101420.97
2019-02-05T17:41:06.488Z,101415.84
2019-02-05T17:43:36.099Z,101405.55
2019-02-05T17:46:06.385Z,101407.91
2019-02-05T17:48:36.118Z,101414.95
2019-02-05T17:51:06.097Z,101409.83
2019-02-05T17:53:35.958Z,101406.47
2019-02-05T17:56:06.212Z,101408.64
2019-02-05T17:58:36.020Z,101413.09
2019-02-05T18:01:08.254Z,101410.76
2019-02-05T18:03:38.035Z,101407.41
2019-02-05T18:06:08.071Z,101406.63
2019-02-05T18:08:37.795Z,101408.30
2019-02-05T18:11:07.898Z,101413.80
2019-02-05T18:13:37.617Z,101408.29
2019-02-05T18:16:10.055Z,101404.88
2019-02-05T18:18:39.849Z,101405.02
2019-02-05T18:21:09.508Z,101401.38
2019-02-05T18:23:39.284Z,101405.47
2019-02-05T18:26:09.055Z,101396.34
2019-02-05T18:28:39.092Z,101397.13
2019-02-05T18:31:09.026Z,101398.32
2019-02-05T18:33:38.700Z,101398.05
2019-02-05T18:36:08.704Z,101399.37
2019-02-05T18:38:38.506Z,101401.02
2019-02-05T18:41:08.172Z,101392.87
2019-02-05T18:43:38.009Z,101394.70
2019-02-05T18:46:07.934Z,101398.70
2019-02-05T18:48:38.078Z,101391.41
2019-02-05T18:51:07.827Z,101398.87
2019-02-05T18:53:38.089Z,101399.84
2019-02-05T18:56:07.893Z,101398.60
2019-02-05T18:58:38.149Z,101399.02
2019-02-05T19:01:08.298Z,101391.09
2019-02-05T19:03:38.233Z,101392.41
2019-02-05T19:06:08.014Z,101392.38
2019-02-05T19:08:37.993Z,101398.78
2019-02-05T19:11:08.044Z,101404.91
2019-02-05T19:13:37.838Z,101392.41
2019-02-05T19:16:07.580Z,101393.07
2019-02-05T19:18:37.461Z,101388.43
2019-02-05T19:21:07.409Z,101380.42
2019-02-05T19:23:37.529Z,101385.70
2019-02-05T19:26:12.187Z,101387.93
2019-02-05T19:28:41.919Z,101378.63
2019-02-05T19:31:13.315Z,101380.97
2019-02-05T19:33:43.193Z,101384.66
2019-02-05T19:36:12.839Z,101384.77
2019-02-05T19:38:42.633Z,101388.09
2019-02-05T19:41:12.497Z,101383.43
2019-02-05T19:43:42.538Z,101391.70
2019-02-05T19:46:19.724Z,101390.71
2019-02-05T19:48:50.963Z,101384.77
2019-02-05T19:51:22.997Z,101399.02
2019-02-05T19:53:54.022Z,101388.75
2019-02-05T19:56:23.891Z,101399.27
2019-02-05T19:58:53.608Z,101393.22
2019-02-05T20:01:23.391Z,101395.24
2019-02-05T20:03:53.066Z,101396.58
2019-02-05T20:06:22.807Z,101400.41
2019-02-05T20:08:53.179Z,101403.14
2019-02-05T20:11:23.272Z,101405.63
2019-02-05T20:13:53.143Z,101407.57
2019-02-05T20:16:22.948Z,101403.45
2019-02-05T20:18:52.676Z,101399.75
2019-02-05T20:21:22.462Z,101402.74
2019-02-05T20:23:52.207Z,101403.33
2019-02-05T20:26:22.309Z,101409.48
2019-02-05T20:28:52.022Z,101410.31
2019-02-05T20:31:21.669Z,101409.95
2019-02-05T20:33:51.624Z,101408.80
2019-02-05T20:36:21.422Z,101407.90
2019-02-05T20:38:51.349Z,101399.50
2019-02-05T20:41:21.427Z,101402.61
2019-02-05T20:43:51.537Z,101400.09
2019-02-05T20:46:21.541Z,101402.02
2019-02-05T20:48:51.320Z,101403.49
2019-02-05T20:51:21.053Z,101407.16
2019-02-05T20:53:52.904Z,101413.36
2019-02-05T20:56:22.721Z,101412.38
2019-02-05T20:58:52.568Z,101415.91
2019-02-05T21:01:22.357Z,101414.66
2019-02-05T21:04:01.030Z,101409.55
2019-02-05T21:06:23.492Z,101410.50
2019-02-05T21:08:53.391Z,101405.14
2019-02-05T21:11:23.472Z,101411.08
2019-02-05T21:13:53.619Z,101404.95
2019-02-05T21:16:23.363Z,101410.45
2019-02-05T21:18:53.229Z,101407.14
2019-02-05T21:21:22.858Z,101407.69
2019-02-05T21:23:52.643Z,101411.59
2019-02-05T21:26:22.713Z,101414.42
2019-02-05T21:28:52.516Z,101405.98
2019-02-05T21:31:22.158Z,101409.30
2019-02-05T21:33:51.953Z,101406.55
2019-02-05T21:36:21.729Z,101406.45
2019-02-05T21:38:51.347Z,101409.52
2019-02-05T21:41:21.227Z,101412.20
2019-02-05T21:43:51.625Z,101405.45
2019-02-05T21:46:21.452Z,101412.22
2019-02-05T21:48:51.030Z,101412.76
2019-02-05T21:51:20.749Z,101419.22
2019-02-05T21:53:50.432Z,101417.23
2019-02-05T21:56:20.140Z,101412.73
2019-02-05T21:58:50.701Z,101409.23
2019-02-05T22:01:20.462Z,101404.72
2019-02-05T22:03:50.276Z,101401.66
2019-02-05T22:06:20.463Z,101407.82
2019-02-05T22:08:50.370Z,101407.45
2019-02-05T22:11:20.353Z,101400.62
2019-02-05T22:13:50.644Z,101401.83
2019-02-05T22:16:20.646Z,101407.90
2019-02-05T22:18:50.333Z,101403.70
2019-02-05T22:21:20.600Z,101401.56
2019-02-05T22:23:50.782Z,101406.11
2019-02-05T22:26:20.882Z,101404.13
2019-02-05T22:28:51.903Z,101403.95
2019-02-05T22:31:21.576Z,101402.81
2019-02-05T22:33:51.452Z,101393.70
2019-02-05T22:36:21.349Z,101394.20
2019-02-05T22:38:51.238Z,101399.17
2019-02-05T22:41:21.403Z,101402.81
2019-02-05T22:43:52.122Z,101402.23
2019-02-05T22:46:21.834Z,101406.76
2019-02-05T22:48:51.906Z,101400.81
2019-02-05T22:51:21.595Z,101393.18
2019-02-05T22:53:51.417Z,101392.02
2019-02-05T22:56:21.572Z,101398.70
2019-02-05T22:58:51.525Z,101391.00
2019-02-05T23:01:25.945Z,101386.56
2019-02-05T23:04:00.785Z,101396.88
2019-02-05T23:06:50.400Z,101397.20
2019-02-05T23:09:33.219Z,101399.11
2019-02-05T23:12:22.710Z,101390.52
2019-02-05T23:15:03.264Z,101383.78
2019-02-05T23:17:33.204Z,101382.37
2019-02-05T23:20:02.912Z,101377.33
2019-02-05T23:22:32.597Z,101372.84
2019-02-05T23:25:02.345Z,101373.94
2019-02-05T23:27:31.966Z,101365.16
2019-02-05T23:30:01.777Z,101367.35
2019-02-05T23:32:31.480Z,101367.65
2019-02-05T23:35:02.745Z,101369.50
2019-02-05T23:37:32.807Z,101362.91
2019-02-05T23:40:03.044Z,101365.38
2019-02-05T23:42:32.751Z,101360.90
2019-02-05T23:45:02.477Z,101357.75
2019-02-05T23:47:32.307Z,101359.25
2019-02-05T23:50:01.815Z,101361.84
2019-02-05T23:52:31.553Z,101349.92
2019-02-05T23:55:01.662Z,101351.94
2019-02-05T23:57:31.422Z,101349.16
